Time;durP1;ratioP1;P1;durP2;ratioP2;P2;SDS_P1;SDS_P2;PMS_P1;PMS_P2;Temp;Humidity;BMP_temperature;BMP_pressure;BME280_temperature;BME280_humidity;BME280_pressure;Samples;Min_cycle;Max_cycle;Signal;HPM_P1;HPM_P2
2021/10/10 00:02:10;;;;;;;16.30;11.93;;;8.60;92.30;;;;;;4994896;28;20504;-77
2021/10/10 00:04:54;;;;;;;19.05;13.27;;;8.60;92.30;;;;;;4996234;28;20041;-77
2021/10/10 00:07:41;;;;;;;16.27;12.82;;;8.60;92.30;;;;;;5011468;28;20512;-77
2021/10/10 00:10:25;;;;;;;16.70;12.30;;;8.60;92.70;;;;;;5025377;28;20029;-78
2021/10/10 00:13:10;;;;;;;16.17;12.13;;;8.50;92.90;;;;;;5014003;28;20033;-77
2021/10/10 00:15:54;;;;;;;14.18;11.90;;;8.50;92.80;;;;;;5000922;28;20089;-77
2021/10/10 00:18:38;;;;;;;17.15;11.90;;;8.50;92.90;;;;;;4997684;28;20048;-78
2021/10/10 00:21:23;;;;;;;16.10;12.57;;;8.50;93.00;;;;;;5026285;28;20081;-77
2021/10/10 00:24:07;;;;;;;17.73;12.13;;;8.50;92.90;;;;;;5010547;28;20040;-77
2021/10/10 00:26:52;;;;;;;16.15;12.32;;;8.50;92.90;;;;;;5018857;28;20028;-78
2021/10/10 00:29:36;;;;;;;17.13;12.83;;;8.40;93.20;;;;;;5012834;28;20393;-77
2021/10/10 00:32:20;;;;;;;17.23;13.05;;;8.40;93.10;;;;;;5011157;28;20120;-77
2021/10/10 00:35:05;;;;;;;13.63;11.23;;;8.40;93.10;;;;;;4996808;28;20109;-77
2021/10/10 00:37:49;;;;;;;84.32;41.80;;;8.40;93.10;;;;;;5009957;28;20103;-79
2021/10/10 00:40:33;;;;;;;62.92;30.60;;;8.40;93.30;;;;;;4996766;28;20044;-77
2021/10/10 00:43:18;;;;;;;29.02;17.33;;;8.40;93.30;;;;;;4996639;28;20512;-76
2021/10/10 00:46:02;;;;;;;16.30;13.75;;;8.40;93.30;;;;;;5007848;28;20040;-77
2021/10/10 00:48:46;;;;;;;18.05;13.95;;;8.30;93.20;;;;;;5010827;28;20084;-76
2021/10/10 00:51:34;;;;;;;17.58;13.32;;;8.30;93.30;;;;;;4997298;28;20057;-78
2021/10/10 00:54:19;;;;;;;16.45;13.32;;;8.20;93.20;;;;;;5009705;28;20036;-78
2021/10/10 00:57:06;;;;;;;18.20;13.02;;;8.20;93.20;;;;;;4996234;28;20087;-76
2021/10/10 00:59:53;;;;;;;16.05;12.90;;;8.10;93.50;;;;;;4996611;28;20044;-77
2021/10/10 01:02:40;;;;;;;17.67;12.98;;;8.10;93.60;;;;;;4996869;28;20049;-76
2021/10/10 01:05:25;;;;;;;17.05;12.88;;;8.10;93.50;;;;;;5011168;28;20033;-77
2021/10/10 01:08:13;;;;;;;17.00;13.80;;;8.10;93.50;;;;;;5010493;28;20061;-79
2021/10/10 01:10:57;;;;;;;19.23;12.88;;;8.20;93.40;;;;;;4995719;28;20100;-77
2021/10/10 01:13:42;;;;;;;15.85;12.38;;;8.10;93.40;;;;;;5010576;28;20045;-77
2021/10/10 01:16:26;;;;;;;19.13;13.35;;;8.10;93.60;;;;;;5010141;28;20040;-76
2021/10/10 01:19:11;;;;;;;16.48;13.20;;;8.10;93.80;;;;;;4996401;28;20036;-77
2021/10/10 01:22:00;;;;;;;16.40;13.52;;;8.00;93.80;;;;;;4995946;28;20041;-76
2021/10/10 01:24:45;;;;;;;20.23;14.75;;;7.90;93.70;;;;;;4995853;28;20044;-77
2021/10/10 01:27:29;;;;;;;19.23;14.10;;;7.90;93.70;;;;;;5023402;28;20084;-77
2021/10/10 01:30:13;;;;;;;16.75;14.32;;;7.80;93.60;;;;;;4993003;28;20056;-77
2021/10/10 01:32:59;;;;;;;15.98;12.85;;;7.70;93.70;;;;;;5021172;28;20053;-77
2021/10/10 01:35:43;;;;;;;16.13;14.15;;;7.70;93.70;;;;;;4994697;28;20113;-77
2021/10/10 01:38:27;;;;;;;18.10;14.17;;;7.70;93.80;;;;;;5009576;28;20040;-75
2021/10/10 01:41:11;;;;;;;19.65;14.05;;;7.70;93.70;;;;;;4994515;28;20040;-77
2021/10/10 01:43:55;;;;;;;17.33;14.00;;;7.60;93.70;;;;;;4994991;28;20076;-77
2021/10/10 01:46:41;;;;;;;18.33;14.02;;;7.70;93.70;;;;;;4995112;28;20045;-77
2021/10/10 01:49:26;;;;;;;18.50;13.85;;;7.60;93.60;;;;;;5007954;28;20036;-77
2021/10/10 01:52:10;;;;;;;18.30;13.97;;;7.60;93.60;;;;;;5022449;28;20029;-76
2021/10/10 01:54:54;;;;;;;19.50;13.90;;;7.60;93.60;;;;;;5021775;28;20033;-77
2021/10/10 01:57:39;;;;;;;16.77;13.68;;;7.60;93.60;;;;;;5007289;28;20033;-77
2021/10/10 02:00:23;;;;;;;17.05;12.93;;;7.60;93.60;;;;;;4992691;28;20041;-77
2021/10/10 02:03:08;;;;;;;20.52;15.10;;;7.60;93.60;;;;;;4992594;28;20362;-77
2021/10/10 02:05:52;;;;;;;17.77;14.20;;;7.60;93.70;;;;;;5007201;28;20536;-77
2021/10/10 02:08:36;;;;;;;20.08;15.27;;;7.70;93.60;;;;;;5007059;28;20037;-76
2021/10/10 02:11:21;;;;;;;21.73;14.80;;;7.60;93.50;;;;;;4993512;28;20113;-76
2021/10/10 02:14:06;;;;;;;18.65;13.43;;;7.60;93.50;;;;;;5023450;28;20120;-76
2021/10/10 02:16:50;;;;;;;33.08;20.98;;;7.60;93.50;;;;;;5008943;28;20049;-78
2021/10/10 02:19:34;;;;;;;29.58;19.23;;;7.60;93.70;;;;;;4994436;28;20116;-77
2021/10/10 02:22:18;;;;;;;24.40;16.30;;;7.60;93.90;;;;;;4994001;28;20535;-77
2021/10/10 02:25:04;;;;;;;20.15;14.27;;;7.60;93.70;;;;;;5007419;28;20028;-77
2021/10/10 02:27:48;;;;;;;18.05;14.25;;;7.50;93.70;;;;;;4980130;28;20065;-77
2021/10/10 02:30:33;;;;;;;20.88;15.13;;;7.50;93.80;;;;;;4980187;28;20095;-77
2021/10/10 02:33:17;;;;;;;17.05;14.13;;;7.50;93.80;;;;;;5008405;28;20457;-77
2021/10/10 02:36:01;;;;;;;18.70;14.80;;;7.40;93.80;;;;;;4994588;28;20087;-78
2021/10/10 02:38:45;;;;;;;18.05;14.68;;;7.40;93.90;;;;;;5023742;28;20056;-76
2021/10/10 02:41:29;;;;;;;20.50;14.95;;;7.40;93.90;;;;;;5007719;28;20100;-76
2021/10/10 02:44:14;;;;;;;21.90;15.57;;;7.40;93.90;;;;;;4992641;28;20081;-76
2021/10/10 02:46:58;;;;;;;21.95;15.10;;;7.40;93.90;;;;;;4978418;28;20557;-77
2021/10/10 02:49:42;;;;;;;19.23;15.32;;;7.40;94.00;;;;;;4991028;28;20547;-77
2021/10/10 02:52:26;;;;;;;19.90;15.43;;;7.40;94.00;;;;;;5005664;28;20084;-76
2021/10/10 02:55:10;;;;;;;25.23;16.92;;;7.30;94.10;;;;;;5006669;28;20040;-77
2021/10/10 02:57:54;;;;;;;21.40;15.57;;;7.20;94.30;;;;;;4993689;28;20164;-77
2021/10/10 03:00:38;;;;;;;23.85;16.85;;;7.20;94.30;;;;;;4994177;28;20045;-77
2021/10/10 03:03:23;;;;;;;22.27;16.50;;;7.30;94.40;;;;;;5007584;28;20037;-76
2021/10/10 03:06:07;;;;;;;21.00;15.82;;;7.30;94.40;;;;;;4980000;28;20037;-77
2021/10/10 03:08:51;;;;;;;19.50;15.10;;;7.20;94.40;;;;;;5007977;28;20045;-77
2021/10/10 03:11:36;;;;;;;20.00;15.85;;;7.30;94.30;;;;;;4993746;28;20032;-77
2021/10/10 03:14:20;;;;;;;18.40;14.50;;;7.30;94.40;;;;;;4992194;28;20161;-77
2021/10/10 03:17:05;;;;;;;20.85;15.40;;;7.30;94.40;;;;;;5004861;28;20091;-76
2021/10/10 03:19:49;;;;;;;21.80;14.93;;;7.30;94.40;;;;;;4992468;28;20081;-76
2021/10/10 03:22:33;;;;;;;18.77;15.67;;;7.30;94.50;;;;;;5006046;28;20044;-76
2021/10/10 03:25:18;;;;;;;19.52;15.02;;;7.20;94.60;;;;;;4978034;28;20092;-76
2021/10/10 03:28:02;;;;;;;21.42;15.32;;;7.20;94.70;;;;;;5004372;28;20546;-76
2021/10/10 03:30:46;;;;;;;16.90;14.35;;;7.20;94.70;;;;;;5004427;28;20045;-78
2021/10/10 03:33:30;;;;;;;18.05;14.73;;;7.30;94.90;;;;;;5005764;28;20052;-77
2021/10/10 03:36:15;;;;;;;19.58;14.98;;;7.30;95.00;;;;;;4983533;28;20065;-77
2021/10/10 03:38:59;;;;;;;19.13;15.02;;;7.30;94.90;;;;;;4983385;28;20120;-77
2021/10/10 03:41:44;;;;;;;19.00;15.00;;;7.30;95.00;;;;;;4996014;28;20088;-77
2021/10/10 03:44:28;;;;;;;20.00;15.10;;;7.20;95.10;;;;;;5008933;28;20417;-79
2021/10/10 03:47:15;;;;;;;18.35;14.23;;;7.10;95.30;;;;;;5009809;28;20041;-77
2021/10/10 03:49:59;;;;;;;19.23;15.25;;;7.10;95.30;;;;;;5010575;28;20037;-77
2021/10/10 03:52:43;;;;;;;20.77;14.55;;;7.10;95.40;;;;;;4982253;28;20037;-77
2021/10/10 03:55:31;;;;;;;17.55;14.18;;;7.10;95.40;;;;;;5025442;28;20097;-77
2021/10/10 03:58:16;;;;;;;19.08;14.20;;;7.00;95.50;;;;;;4998234;28;20524;-77
2021/10/10 04:01:00;;;;;;;19.88;15.30;;;6.90;95.70;;;;;;4984316;28;20045;-77
2021/10/10 04:03:44;;;;;;;19.95;15.57;;;6.90;95.70;;;;;;4998428;28;20052;-77
2021/10/10 04:06:28;;;;;;;17.90;14.57;;;6.80;95.90;;;;;;5026794;28;20064;-78
2021/10/10 04:09:13;;;;;;;17.53;14.30;;;6.80;96.00;;;;;;5013638;28;20037;-78
2021/10/10 04:11:57;;;;;;;18.02;15.27;;;6.80;96.00;;;;;;5012897;28;20188;-77
2021/10/10 04:14:41;;;;;;;16.50;14.70;;;6.80;96.00;;;;;;4997462;28;20045;-76
2021/10/10 04:17:25;;;;;;;17.58;14.75;;;6.80;96.00;;;;;;4997898;28;20137;-77
2021/10/10 04:20:11;;;;;;;17.88;14.50;;;6.60;96.30;;;;;;4998186;28;20073;-77
2021/10/10 04:22:56;;;;;;;18.27;13.98;;;6.60;96.40;;;;;;4997009;28;20037;-76
2021/10/10 04:25:40;;;;;;;21.17;14.38;;;6.60;96.50;;;;;;4995629;28;20137;-77
2021/10/10 04:28:25;;;;;;;18.15;14.45;;;6.60;96.50;;;;;;5009841;28;20574;-76
2021/10/10 04:31:10;;;;;;;16.67;13.82;;;6.60;96.60;;;;;;5009720;28;20111;-76
2021/10/10 04:33:54;;;;;;;18.10;14.32;;;6.60;96.60;;;;;;5025312;28;20048;-77
2021/10/10 04:36:39;;;;;;;17.98;14.05;;;6.60;96.60;;;;;;4984050;28;20129;-77
2021/10/10 04:39:23;;;;;;;18.38;14.75;;;6.60;96.60;;;;;;5024522;28;20421;-76
2021/10/10 04:42:08;;;;;;;17.73;14.05;;;6.60;96.50;;;;;;4994460;28;20069;-76
2021/10/10 04:44:52;;;;;;;17.88;13.68;;;6.60;96.50;;;;;;5010050;28;20033;-77
2021/10/10 04:47:36;;;;;;;16.37;13.20;;;6.60;96.50;;;;;;4997798;28;20036;-77
2021/10/10 04:50:20;;;;;;;16.33;13.45;;;6.50;96.80;;;;;;5010559;28;20053;-75
2021/10/10 04:53:07;;;;;;;17.17;13.77;;;6.40;96.80;;;;;;4997017;28;20033;-77
2021/10/10 04:55:52;;;;;;;18.02;13.38;;;6.30;96.90;;;;;;5008512;28;20060;-77
2021/10/10 04:58:36;;;;;;;19.17;14.35;;;6.30;97.00;;;;;;4996518;28;20505;-77
2021/10/10 05:01:20;;;;;;;16.98;12.95;;;6.30;96.70;;;;;;4983724;28;20040;-78
2021/10/10 05:04:04;;;;;;;16.55;13.60;;;6.30;96.70;;;;;;4996506;28;20088;-77
2021/10/10 05:06:48;;;;;;;18.45;14.30;;;6.20;97.00;;;;;;4996361;28;20041;-76
2021/10/10 05:09:32;;;;;;;20.38;14.38;;;6.20;96.90;;;;;;4996358;28;20041;-77
2021/10/10 05:12:16;;;;;;;14.68;12.77;;;6.20;97.00;;;;;;4997039;28;20100;-77
2021/10/10 05:15:00;;;;;;;15.52;12.52;;;6.20;97.10;;;;;;5010180;28;20044;-76
2021/10/10 05:17:44;;;;;;;14.20;12.70;;;6.20;97.00;;;;;;4982557;28;20068;-78
2021/10/10 05:20:29;;;;;;;15.82;12.30;;;6.30;97.00;;;;;;5002162;28;20041;-76
2021/10/10 05:23:15;;;;;;;15.43;12.55;;;6.30;96.80;;;;;;5010790;28;20049;-77
2021/10/10 05:26:00;;;;;;;16.95;12.00;;;6.20;96.80;;;;;;5010573;28;20037;-77
2021/10/10 05:28:45;;;;;;;15.85;12.63;;;6.20;97.00;;;;;;5008854;28;20049;-76
2021/10/10 05:31:29;;;;;;;17.65;13.15;;;6.10;97.10;;;;;;5008085;28;20049;-76
2021/10/10 05:34:13;;;;;;;17.75;13.32;;;6.10;97.10;;;;;;4996800;28;20097;-77
2021/10/10 05:36:58;;;;;;;14.63;12.68;;;6.10;96.90;;;;;;4997131;28;20044;-76
2021/10/10 05:39:42;;;;;;;15.23;12.18;;;6.10;97.00;;;;;;4997134;28;20040;-76
2021/10/10 05:42:26;;;;;;;17.10;12.97;;;6.10;97.10;;;;;;5026081;28;20044;-77
2021/10/10 05:45:10;;;;;;;17.88;13.43;;;6.10;97.00;;;;;;4999692;28;20040;-77
2021/10/10 05:47:55;;;;;;;16.40;12.95;;;6.10;97.10;;;;;;4998557;28;20037;-77
2021/10/10 05:50:39;;;;;;;16.65;13.10;;;6.10;97.10;;;;;;4984449;28;20072;-77
2021/10/10 05:53:25;;;;;;;17.08;13.68;;;6.20;97.00;;;;;;4984677;28;20037;-79
2021/10/10 05:56:09;;;;;;;;;;;6.20;96.80;;;;;;5012633;28;20045;-78
2021/10/10 05:59:02;;;;;;;15.70;12.75;;;6.20;96.60;;;;;;4997962;28;19956;-78
2021/10/10 06:01:46;;;;;;;15.25;12.82;;;6.30;96.60;;;;;;4997385;28;20114;-79
2021/10/10 06:04:30;;;;;;;19.63;13.00;;;6.30;96.40;;;;;;4984442;28;20037;-77
2021/10/10 06:07:14;;;;;;;22.83;13.68;;;6.30;96.40;;;;;;4986507;28;20048;-77
2021/10/10 06:09:58;;;;;;;17.10;13.07;;;6.30;96.40;;;;;;5011475;28;20087;-77
2021/10/10 06:12:42;;;;;;;18.10;13.88;;;6.40;96.40;;;;;;4997078;28;20088;-76
2021/10/10 06:15:27;;;;;;;15.13;12.50;;;6.40;96.40;;;;;;5011441;28;20065;-77
2021/10/10 06:18:11;;;;;;;22.58;13.90;;;6.40;96.30;;;;;;5010895;28;20037;-77
2021/10/10 06:20:55;;;;;;;14.90;12.38;;;6.40;96.40;;;;;;5010689;28;20052;-78
2021/10/10 06:23:40;;;;;;;15.95;13.95;;;6.50;96.30;;;;;;4983636;28;20444;-77
2021/10/10 06:26:24;;;;;;;18.30;13.30;;;6.50;96.10;;;;;;5010297;28;20044;-78
2021/10/10 06:29:08;;;;;;;18.00;13.45;;;6.60;96.00;;;;;;4997969;28;20040;-77
2021/10/10 06:31:53;;;;;;;15.50;13.20;;;6.60;95.90;;;;;;5012998;28;20096;-76
2021/10/10 06:34:37;;;;;;;19.73;14.50;;;6.60;96.10;;;;;;5010703;28;20036;-77
2021/10/10 06:37:21;;;;;;;16.88;13.75;;;6.60;96.20;;;;;;4997304;28;20088;-77
2021/10/10 06:40:06;;;;;;;19.25;13.90;;;6.60;96.20;;;;;;4997032;28;20045;-78
2021/10/10 06:42:51;;;;;;;19.33;13.40;;;6.60;96.30;;;;;;4998678;28;20095;-79
2021/10/10 06:45:35;;;;;;;19.60;13.60;;;6.60;96.40;;;;;;5004728;28;20078;-79
2021/10/10 06:48:20;;;;;;;32.78;22.17;;;6.70;96.40;;;;;;4985187;28;20449;-79
2021/10/10 06:51:04;;;;;;;27.35;19.45;;;6.70;96.50;;;;;;5012301;28;20057;-78
2021/10/10 06:53:48;;;;;;;25.92;17.40;;;6.70;96.60;;;;;;5012377;28;20044;-81
2021/10/10 06:56:32;;;;;;;21.48;16.55;;;6.80;96.70;;;;;;4998582;28;20061;-80
2021/10/10 06:59:16;;;;;;;19.70;15.93;;;6.90;96.50;;;;;;5012336;28;20116;-79
2021/10/10 07:02:00;;;;;;;20.52;15.05;;;6.90;96.50;;;;;;4987770;28;20037;-79
2021/10/10 07:04:45;;;;;;;20.17;15.43;;;7.00;96.80;;;;;;5004660;28;20413;-78
2021/10/10 07:07:29;;;;;;;23.05;17.02;;;7.10;96.70;;;;;;5000678;28;20044;-78
2021/10/10 07:10:13;;;;;;;21.75;17.25;;;7.10;96.60;;;;;;5013684;28;20098;-78
2021/10/10 07:12:58;;;;;;;23.98;19.17;;;7.20;96.60;;;;;;5012501;28;20040;-77
2021/10/10 07:15:42;;;;;;;22.77;18.00;;;7.20;96.60;;;;;;4996855;28;20041;-77
2021/10/10 07:18:31;;;;;;;24.48;18.02;;;7.20;96.40;;;;;;5011331;28;20574;-81
2021/10/10 07:27:22;;;;;;;22.70;17.48;;;7.40;96.80;;;;;;5013035;28;20045;-75
2021/10/10 07:30:08;;;;;;;26.23;19.05;;;7.50;96.70;;;;;;5013069;28;20540;-78
2021/10/10 07:32:53;;;;;;;21.30;17.42;;;7.50;96.50;;;;;;5002311;28;20061;-77
2021/10/10 07:35:37;;;;;;;23.85;17.20;;;7.60;96.40;;;;;;4976574;28;20046;-76
2021/10/10 07:38:21;;;;;;;24.45;19.23;;;7.70;96.20;;;;;;5004758;28;20092;-79
2021/10/10 07:41:06;;;;;;;28.15;19.67;;;7.70;96.00;;;;;;5003621;28;20050;-79
2021/10/10 07:43:50;;;;;;;27.55;21.45;;;7.80;96.30;;;;;;5006470;28;20556;-82
2021/10/10 07:46:38;;;;;;;28.33;20.70;;;7.80;95.70;;;;;;5010101;28;20044;-77
2021/10/10 07:49:22;;;;;;;31.75;22.52;;;7.80;95.70;;;;;;5004783;28;20041;-79
2021/10/10 07:52:06;;;;;;;26.57;21.67;;;7.90;95.70;;;;;;5004117;28;20093;-77
2021/10/10 07:54:51;;;;;;;27.08;21.02;;;7.90;95.30;;;;;;5003605;28;20441;-77
2021/10/10 07:57:36;;;;;;;;;;;7.80;95.30;;;;;;5003253;28;20081;-77
2021/10/10 08:00:20;;;;;;;27.05;19.58;;;7.90;95.20;;;;;;5002837;28;19933;-76
2021/10/10 08:03:05;;;;;;;26.67;20.88;;;7.90;95.20;;;;;;5005220;28;20422;-77
2021/10/10 08:05:49;;;;;;;26.45;20.20;;;8.00;95.10;;;;;;4991755;28;20041;-79
2021/10/10 08:08:33;;;;;;;34.57;25.50;;;8.10;94.90;;;;;;5005776;28;20061;-79
2021/10/10 08:11:18;;;;;;;32.67;22.17;;;8.20;94.90;;;;;;5005426;28;20095;-77
2021/10/10 08:14:02;;;;;;;27.70;20.07;;;8.30;94.50;;;;;;5005178;28;20077;-79
2021/10/10 08:16:46;;;;;;;27.80;20.27;;;8.40;94.40;;;;;;5004298;28;20085;-79
2021/10/10 08:19:31;;;;;;;27.13;19.55;;;8.40;94.20;;;;;;5004875;28;20493;-79
2021/10/10 08:22:16;;;;;;;24.70;19.38;;;8.50;94.10;;;;;;5005961;28;20049;-77
2021/10/10 08:25:11;;;;;;;31.17;21.98;;;8.60;94.00;;;;;;5006756;28;20505;-77
2021/10/10 08:27:55;;;;;;;27.80;20.20;;;8.70;93.90;;;;;;5005993;28;20061;-77
2021/10/10 08:30:39;;;;;;;24.35;16.98;;;8.90;93.40;;;;;;5006833;28;20041;-76
2021/10/10 08:33:27;;;;;;;23.43;18.27;;;8.90;93.00;;;;;;5007496;28;20057;-77
2021/10/10 08:36:11;;;;;;;25.42;17.63;;;8.90;92.40;;;;;;5008835;28;20053;-76
2021/10/10 08:38:55;;;;;;;25.73;18.15;;;9.00;92.10;;;;;;4996718;28;20122;-79
2021/10/10 08:41:43;;;;;;;23.63;17.05;;;8.90;92.20;;;;;;5007110;28;20401;-77
2021/10/10 08:44:34;;;;;;;23.27;17.48;;;8.90;92.00;;;;;;5006077;28;20045;-78
2021/10/10 08:47:22;;;;;;;24.23;16.92;;;8.80;92.20;;;;;;5005853;28;20049;-80
2021/10/10 08:50:13;;;;;;;26.42;17.65;;;8.90;92.00;;;;;;4992300;28;20036;-77
2021/10/10 08:53:00;;;;;;;22.55;17.40;;;8.90;92.10;;;;;;5007556;28;20064;-77
2021/10/10 08:55:44;;;;;;;23.60;17.80;;;9.00;92.20;;;;;;5008706;28;20045;-78
2021/10/10 08:58:35;;;;;;;25.77;19.07;;;9.00;92.30;;;;;;5006415;28;20041;-77
2021/10/10 09:01:27;;;;;;;23.92;17.23;;;9.10;92.60;;;;;;5006201;28;20162;-77
2021/10/10 09:04:11;;;;;;;26.52;18.52;;;9.20;92.70;;;;;;5007327;28;20160;-78
2021/10/10 09:06:58;;;;;;;24.00;17.20;;;9.50;92.60;;;;;;5006960;28;20513;-79
2021/10/10 09:09:43;;;;;;;25.27;17.83;;;9.70;92.30;;;;;;5005090;28;20042;-79
2021/10/10 09:12:28;;;;;;;26.77;18.55;;;9.80;92.20;;;;;;5005148;28;20050;-77
2021/10/10 09:15:17;;;;;;;25.73;18.58;;;10.00;92.00;;;;;;5005034;28;20061;-76
2021/10/10 09:18:03;;;;;;;23.40;16.90;;;10.00;91.90;;;;;;5004223;28;20045;-77
2021/10/10 09:20:48;;;;;;;21.60;17.13;;;10.10;91.80;;;;;;5006058;28;20123;-78
2021/10/10 09:23:33;;;;;;;25.20;16.60;;;10.20;91.50;;;;;;5006604;28;20057;-78
2021/10/10 09:26:18;;;;;;;22.55;16.65;;;10.30;91.10;;;;;;5006480;28;20098;-78
2021/10/10 09:29:03;;;;;;;23.70;16.92;;;10.40;91.10;;;;;;5006322;28;20126;-79
2021/10/10 09:31:48;;;;;;;21.48;16.38;;;10.50;90.60;;;;;;5006374;28;20049;-76
2021/10/10 09:34:32;;;;;;;20.52;15.20;;;10.60;90.30;;;;;;4990135;28;20036;-77
2021/10/10 09:37:25;;;;;;;23.15;17.98;;;10.70;90.10;;;;;;5004612;28;20045;-77
2021/10/10 09:40:24;;;;;;;22.17;15.93;;;10.70;89.20;;;;;;5005501;28;20037;-77
2021/10/10 09:43:08;;;;;;;18.98;14.93;;;10.80;89.10;;;;;;5006555;28;20033;-79
2021/10/10 09:45:53;;;;;;;18.73;14.45;;;10.90;88.60;;;;;;5003750;28;20048;-77
2021/10/10 09:48:39;;;;;;;;;;;11.00;87.30;;;;;;5006914;28;20069;-76
2021/10/10 09:51:30;;;;;;;;;;;11.10;86.60;;;;;;4997260;28;19916;-78
2021/10/10 09:54:15;;;;;;;22.05;16.80;;;11.20;86.50;;;;;;4996556;28;19913;-80
2021/10/10 09:57:03;;;;;;;24.67;17.45;;;11.30;86.20;;;;;;5009054;28;20061;-77
2021/10/10 09:59:48;;;;;;;23.77;18.33;;;11.30;85.60;;;;;;5009188;28;20069;-79
2021/10/10 10:02:39;;;;;;;23.85;15.80;;;11.30;85.60;;;;;;5007438;28;20029;-79
2021/10/10 10:05:28;;;;;;;20.75;15.15;;;11.40;84.70;;;;;;5006125;28;20070;-77
2021/10/10 10:08:13;;;;;;;20.83;14.88;;;11.40;85.40;;;;;;5006969;28;20025;-78
2021/10/10 10:10:57;;;;;;;26.55;16.83;;;11.60;85.60;;;;;;5006854;28;20564;-79
2021/10/10 10:13:43;;;;;;;19.03;14.87;;;11.70;85.10;;;;;;5006297;28;20532;-78
2021/10/10 10:16:29;;;;;;;18.75;14.13;;;11.90;85.00;;;;;;5007364;28;20301;-77
2021/10/10 10:19:20;;;;;;;39.38;28.85;;;12.00;84.60;;;;;;5007483;28;20065;-77
2021/10/10 10:22:07;;;;;;;39.30;28.65;;;12.10;83.80;;;;;;5006462;28;20093;-76
2021/10/10 10:24:52;;;;;;;28.50;19.13;;;12.10;82.80;;;;;;5006619;28;20096;-77
2021/10/10 10:27:36;;;;;;;;;;;12.20;82.90;;;;;;5006229;28;20041;-77
2021/10/10 10:30:23;;;;;;;19.25;13.90;;;12.20;83.20;;;;;;5005015;28;20278;-78
2021/10/10 10:33:08;;;;;;;21.35;14.73;;;12.30;82.20;;;;;;5004485;28;20041;-78
2021/10/10 10:35:52;;;;;;;20.40;15.10;;;12.50;81.90;;;;;;5004979;28;20044;-80
2021/10/10 10:38:45;;;;;;;23.27;13.38;;;12.60;81.50;;;;;;5006295;28;20052;-77
2021/10/10 10:41:49;;;;;;;18.00;13.57;;;12.80;81.30;;;;;;5004634;28;20041;-80
2021/10/10 10:44:44;;;;;;;18.08;13.55;;;12.90;80.80;;;;;;5017246;28;20057;-79
2021/10/10 10:47:40;;;;;;;18.58;13.77;;;12.90;81.00;;;;;;5010099;28;20030;-79
2021/10/10 10:50:25;;;;;;;;;;;13.00;81.20;;;;;;5006747;28;20061;-79
2021/10/10 10:53:13;;;;;;;21.40;15.73;;;13.20;80.50;;;;;;5003566;28;19920;-79
2021/10/10 10:55:57;;;;;;;17.88;13.98;;;13.10;79.80;;;;;;5006763;28;20062;-79
2021/10/10 10:58:46;;;;;;;20.67;15.10;;;13.00;80.60;;;;;;5005184;28;20171;-80
2021/10/10 11:01:59;;;;;;;19.75;14.30;;;13.00;80.10;;;;;;5004169;28;20538;-77
2021/10/10 11:05:05;;;;;;;18.42;14.48;;;13.10;80.20;;;;;;5003987;28;20038;-79
2021/10/10 11:07:51;;;;;;;21.77;14.45;;;13.20;80.90;;;;;;5002090;28;20074;-79
2021/10/10 11:10:37;;;;;;;21.27;15.97;;;13.30;80.80;;;;;;5005664;28;20033;-79
2021/10/10 11:13:23;;;;;;;20.73;15.25;;;13.40;79.90;;;;;;5005895;28;20089;-81
2021/10/10 11:16:33;;;;;;;26.63;18.17;;;13.30;79.60;;;;;;4990146;28;20183;-79
2021/10/10 11:19:20;;;;;;;19.55;14.02;;;13.40;78.40;;;;;;5003173;28;20025;-78
2021/10/10 11:22:05;;;;;;;21.75;14.05;;;13.40;78.20;;;;;;5003187;28;20036;-80
2021/10/10 11:24:49;;;;;;;20.48;14.77;;;13.40;78.30;;;;;;5004689;28;20037;-80
2021/10/10 11:27:34;;;;;;;19.17;14.65;;;13.40;78.50;;;;;;5004998;28;20045;-79
2021/10/10 11:30:29;;;;;;;20.10;13.40;;;13.40;77.40;;;;;;5003192;28;20045;-79
2021/10/10 11:33:15;;;;;;;15.50;12.57;;;13.50;76.90;;;;;;5002908;28;20089;-77
2021/10/10 11:35:59;;;;;;;17.52;12.55;;;13.60;77.00;;;;;;5003468;28;20045;-79
2021/10/10 11:38:53;;;;;;;18.85;13.93;;;13.60;75.80;;;;;;5002826;28;20069;-78
2021/10/10 11:41:43;;;;;;;18.95;13.70;;;13.60;74.70;;;;;;5002919;28;20045;-78
2021/10/10 11:44:44;;;;;;;20.95;16.35;;;13.70;75.30;;;;;;4989770;28;20521;-79
2021/10/10 11:47:30;;;;;;;21.80;13.70;;;13.60;75.20;;;;;;5002146;28;20042;-78
2021/10/10 11:50:15;;;;;;;16.77;13.00;;;13.60;75.30;;;;;;5003496;28;20029;-78
2021/10/10 11:53:01;;;;;;;16.38;13.32;;;13.70;75.40;;;;;;5002423;28;20042;-78
2021/10/10 11:55:45;;;;;;;18.58;13.05;;;13.80;75.30;;;;;;5001478;28;20046;-81
2021/10/10 11:58:31;;;;;;;15.70;12.67;;;13.80;74.90;;;;;;5004888;28;20033;-82
2021/10/10 12:01:15;;;;;;;19.98;13.80;;;13.80;75.30;;;;;;5008540;28;20261;-75
2021/10/10 12:04:00;;;;;;;19.30;12.50;;;13.80;75.50;;;;;;5004418;28;20049;-77
2021/10/10 12:06:49;;;;;;;22.50;13.87;;;14.00;75.20;;;;;;5016301;28;20040;-77
2021/10/10 12:09:45;;;;;;;16.05;12.63;;;14.10;75.50;;;;;;5004419;28;20041;-78
2021/10/10 12:12:30;;;;;;;19.70;13.52;;;14.10;75.10;;;;;;5029667;28;20390;-77
2021/10/10 12:15:20;;;;;;;18.05;14.90;;;14.10;74.60;;;;;;5000208;28;20038;-76
2021/10/10 12:18:12;;;;;;;18.48;14.75;;;14.10;73.70;;;;;;4998199;28;20041;-77
2021/10/10 12:21:25;;;;;;;18.63;13.60;;;14.10;73.80;;;;;;5012748;28;20088;-78
2021/10/10 12:24:13;;;;;;;26.90;18.13;;;13.90;73.60;;;;;;5024509;28;20048;-77
2021/10/10 12:27:01;;;;;;;22.92;12.48;;;14.10;73.90;;;;;;5014842;28;20207;-77
2021/10/10 12:29:46;;;;;;;15.00;12.23;;;14.30;74.00;;;;;;5012626;28;20037;-77
2021/10/10 12:32:32;;;;;;;19.88;14.43;;;14.40;72.20;;;;;;5000315;28;20049;-77
2021/10/10 12:35:16;;;;;;;18.33;11.63;;;14.60;72.00;;;;;;5011139;28;20069;-80
2021/10/10 12:38:01;;;;;;;15.05;11.05;;;14.70;71.80;;;;;;4993932;28;20041;-81
2021/10/10 12:40:45;;;;;;;16.35;11.75;;;14.90;71.00;;;;;;4978575;28;20118;-81
2021/10/10 12:43:39;;;;;;;16.42;11.75;;;15.10;69.60;;;;;;4981768;28;20084;-77
2021/10/10 12:46:26;;;;;;;17.70;12.38;;;15.20;69.50;;;;;;4993096;28;20090;-77
2021/10/10 12:49:10;;;;;;;28.98;17.80;;;15.30;69.90;;;;;;5007360;28;20045;-77
2021/10/10 12:51:55;;;;;;;22.58;14.50;;;15.30;69.10;;;;;;4993664;28;20041;-76
2021/10/10 12:54:42;;;;;;;15.77;11.45;;;15.50;69.70;;;;;;5007155;28;20089;-77
2021/10/10 12:57:28;;;;;;;17.90;11.27;;;15.70;69.60;;;;;;4992081;28;20547;-76
2021/10/10 13:00:16;;;;;;;11.93;9.50;;;15.50;65.30;;;;;;4978079;28;20041;-77
2021/10/10 13:03:01;;;;;;;13.70;9.90;;;15.40;64.90;;;;;;5012972;28;20040;-77
2021/10/10 13:05:45;;;;;;;15.70;10.70;;;15.20;65.00;;;;;;4980833;28;20037;-76
2021/10/10 13:08:29;;;;;;;13.70;10.73;;;15.20;64.10;;;;;;4991390;28;20065;-77
2021/10/10 13:11:14;;;;;;;17.95;12.98;;;15.20;64.70;;;;;;4991125;28;20537;-76
2021/10/10 13:13:58;;;;;;;19.70;15.85;;;15.20;64.60;;;;;;5006889;28;20084;-79
2021/10/10 13:16:43;;;;;;;16.48;13.15;;;15.30;64.80;;;;;;4993242;28;20037;-81
2021/10/10 13:19:28;;;;;;;14.77;13.20;;;15.40;66.10;;;;;;4982579;28;20049;-76
2021/10/10 13:22:12;;;;;;;17.67;14.07;;;15.80;67.00;;;;;;4977933;28;20122;-77
2021/10/10 13:24:57;;;;;;;20.70;13.27;;;16.10;67.00;;;;;;4979717;28;20070;-79
2021/10/10 13:27:42;;;;;;;20.45;13.25;;;16.40;66.60;;;;;;4979970;28;20049;-78
2021/10/10 13:30:26;;;;;;;17.92;13.18;;;16.70;66.70;;;;;;4978760;28;20057;-77
2021/10/10 13:33:11;;;;;;;15.25;12.45;;;17.00;66.00;;;;;;5006302;28;20069;-76
2021/10/10 13:35:58;;;;;;;16.88;13.15;;;17.10;65.20;;;;;;4991878;28;20041;-76
2021/10/10 13:38:43;;;;;;;16.65;13.00;;;17.30;65.40;;;;;;4990659;28;20409;-77
2021/10/10 13:41:27;;;;;;;15.55;12.05;;;17.20;62.50;;;;;;4991492;28;20049;-76
2021/10/10 13:44:11;;;;;;;17.48;13.27;;;16.90;63.30;;;;;;4977207;28;20073;-76
2021/10/10 13:46:57;;;;;;;15.38;12.48;;;17.20;62.10;;;;;;5005041;28;20085;-78
2021/10/10 13:49:47;;;;;;;17.48;13.20;;;17.20;61.10;;;;;;4991973;28;20049;-80
2021/10/10 13:52:34;;;;;;;17.48;11.98;;;17.40;62.50;;;;;;4979229;28;20041;-81
2021/10/10 13:55:19;;;;;;;16.80;12.10;;;17.50;62.10;;;;;;4979167;28;20077;-77
2021/10/10 13:58:04;;;;;;;15.05;11.48;;;17.50;61.70;;;;;;4976365;28;20104;-78
2021/10/10 14:00:50;;;;;;;15.73;12.10;;;17.50;61.10;;;;;;5006762;28;20045;-80
2021/10/10 14:03:34;;;;;;;18.67;12.27;;;17.60;61.30;;;;;;5008281;28;20165;-79
2021/10/10 14:06:19;;;;;;;15.45;12.43;;;17.70;60.80;;;;;;4990984;28;20096;-78
2021/10/10 14:09:03;;;;;;;18.35;12.02;;;17.90;62.10;;;;;;4993100;28;20088;-79
2021/10/10 14:11:47;;;;;;;16.33;12.07;;;18.40;61.40;;;;;;4979801;28;20096;-80
2021/10/10 14:14:32;;;;;;;17.70;13.05;;;18.60;60.00;;;;;;4978980;28;20069;-79
2021/10/10 14:17:16;;;;;;;15.20;13.15;;;18.70;60.30;;;;;;4977469;28;20470;-77